createdAt,value
2023-04-20T00:00:19.269Z,1014.49
2023-04-20T00:01:19.220Z,1014.48
2023-04-20T00:02:19.224Z,1014.50
2023-04-20T00:03:19.631Z,1014.46
2023-04-20T00:04:19.101Z,1014.45
2023-04-20T00:05:19.058Z,1014.42
2023-04-20T00:06:19.013Z,1014.45
2023-04-20T00:07:18.970Z,1014.40
2023-04-20T00:08:18.957Z,1014.40
2023-04-20T00:09:19.150Z,1014.38
2023-04-20T00:10:18.838Z,1014.41
2023-04-20T00:11:18.810Z,1014.39
2023-04-20T00:12:18.765Z,1014.35
2023-04-20T00:13:18.705Z,1014.71
2023-04-20T00:14:18.673Z,1014.38
2023-04-20T00:15:18.649Z,1014.30
2023-04-20T00:16:18.604Z,1014.29
2023-04-20T00:17:18.715Z,1014.25
2023-04-20T00:18:18.516Z,1014.24
2023-04-20T00:19:18.627Z,1014.27
2023-04-20T00:20:18.420Z,1014.20
2023-04-20T00:21:18.385Z,1014.21
2023-04-20T00:22:18.348Z,1014.21
2023-04-20T00:23:21.549Z,1014.16
2023-04-20T00:24:18.252Z,1014.10
2023-04-20T00:25:18.207Z,1014.47
2023-04-20T00:26:18.180Z,1014.12
2023-04-20T00:27:18.125Z,1014.41
2023-04-20T00:28:18.085Z,1014.04
2023-04-20T00:29:18.213Z,1014.33
2023-04-20T00:30:18.004Z,1014.30
2023-04-20T00:31:18.010Z,1014.31
2023-04-20T00:32:17.945Z,1013.94
2023-04-20T00:33:17.877Z,1014.33
2023-04-20T00:34:17.825Z,1013.92
2023-04-20T00:35:17.781Z,1014.25
2023-04-20T00:36:17.748Z,1013.99
2023-04-20T00:37:17.720Z,1014.13
2023-04-20T00:38:17.683Z,1013.84
2023-04-20T00:39:17.864Z,1013.86
2023-04-20T00:40:17.589Z,1013.83
2023-04-20T00:41:17.534Z,1013.82
2023-04-20T00:42:17.496Z,1013.82
2023-04-20T00:43:17.460Z,1013.81
2023-04-20T00:44:17.432Z,1013.81
2023-04-20T00:45:17.363Z,1013.79
2023-04-20T00:46:17.347Z,1013.75
2023-04-20T00:47:17.317Z,1013.74
2023-04-20T00:48:17.250Z,1013.72
2023-04-20T00:49:17.345Z,1013.73
2023-04-20T00:50:17.184Z,1013.69
2023-04-20T00:51:17.125Z,1013.69
2023-04-20T00:52:17.076Z,1013.64
2023-04-20T00:53:17.037Z,1013.67
2023-04-20T00:54:16.992Z,1013.66
2023-04-20T00:55:16.944Z,1013.67
2023-04-20T00:56:16.934Z,1013.69
2023-04-20T00:57:16.859Z,1013.69
2023-04-20T00:58:16.829Z,1013.68
2023-04-20T00:59:16.957Z,1013.68
2023-04-20T01:00:16.754Z,1013.77
2023-04-20T01:01:16.724Z,1014.01
2023-04-20T01:02:16.718Z,1013.67
2023-04-20T01:03:16.727Z,1013.69
2023-04-20T01:04:16.754Z,1014.03
2023-04-20T01:05:16.557Z,1013.63
2023-04-20T01:06:16.522Z,1013.63
2023-04-20T01:07:16.494Z,1013.60
2023-04-20T01:08:16.399Z,1013.62
2023-04-20T01:09:16.529Z,1013.56
2023-04-20T01:10:16.327Z,1013.57
2023-04-20T01:11:16.275Z,1013.55
2023-04-20T01:12:16.235Z,1013.54
2023-04-20T01:13:16.200Z,1013.84
2023-04-20T01:14:16.154Z,1013.55
2023-04-20T01:15:16.113Z,1013.52
2023-04-20T01:16:16.086Z,1013.52
2023-04-20T01:17:16.031Z,1013.54
2023-04-20T01:18:16.004Z,1013.53
2023-04-20T01:19:16.137Z,1013.47
2023-04-20T01:20:15.917Z,1013.50
2023-04-20T01:21:15.859Z,1013.47
2023-04-20T01:22:15.828Z,1013.45
2023-04-20T01:23:15.767Z,1013.46
2023-04-20T01:24:15.724Z,1013.41
2023-04-20T01:25:15.708Z,1013.43
2023-04-20T01:26:15.678Z,1013.40
2023-04-20T01:27:15.602Z,1013.45
2023-04-20T01:28:15.558Z,1013.42
2023-04-20T01:29:15.636Z,1013.43
2023-04-20T01:30:15.483Z,1013.39
2023-04-20T01:31:15.507Z,1013.38
2023-04-20T01:32:15.401Z,1013.44
2023-04-20T01:33:15.360Z,1013.42
2023-04-20T01:34:15.342Z,1013.36
2023-04-20T01:35:15.261Z,1013.78
2023-04-20T01:36:15.221Z,1013.39
2023-04-20T01:37:15.182Z,1013.45
2023-04-20T01:38:15.135Z,1013.50
2023-04-20T01:39:15.209Z,1013.40
2023-04-20T01:40:15.051Z,1013.74
2023-04-20T01:41:15.003Z,1013.49
2023-04-20T01:42:14.971Z,1013.45
2023-04-20T01:43:14.935Z,1013.44
2023-04-20T01:44:14.889Z,1013.44
2023-04-20T01:45:14.843Z,1013.40
2023-04-20T01:46:14.816Z,1013.43
2023-04-20T01:47:14.759Z,1013.42
2023-04-20T01:48:14.737Z,1013.39
2023-04-20T01:49:14.677Z,1013.38
2023-04-20T01:50:14.630Z,1013.37
2023-04-20T01:51:14.576Z,1013.34
2023-04-20T01:52:14.544Z,1013.34
2023-04-20T01:53:14.501Z,1013.71
2023-04-20T01:54:14.469Z,1013.37
2023-04-20T01:55:14.427Z,1013.22
2023-04-20T01:56:14.390Z,1013.56
2023-04-20T01:57:14.327Z,1013.48
2023-04-20T01:58:14.285Z,1013.49
2023-04-20T01:59:14.241Z,1013.14
2023-04-20T02:00:14.212Z,1013.14
2023-04-20T02:01:14.198Z,1013.46
2023-04-20T02:02:14.209Z,1013.50
2023-04-20T02:03:14.185Z,1013.23
2023-04-20T02:04:14.057Z,1013.12
2023-04-20T02:05:13.994Z,1013.39
2023-04-20T02:06:13.942Z,1013.34
2023-04-20T02:07:13.926Z,1013.27
2023-04-20T02:08:13.898Z,1012.93
2023-04-20T02:09:13.820Z,1012.94
2023-04-20T02:10:13.789Z,1012.92
2023-04-20T02:11:13.736Z,1012.89
2023-04-20T02:12:13.700Z,1013.22
2023-04-20T02:13:13.663Z,1012.92
2023-04-20T02:14:13.629Z,1013.24
2023-04-20T02:15:13.566Z,1013.23
2023-04-20T02:16:13.532Z,1013.20
2023-04-20T02:17:13.558Z,1013.21
2023-04-20T02:18:13.460Z,1012.94
2023-04-20T02:19:13.396Z,1012.95
2023-04-20T02:20:13.358Z,1012.89
2023-04-20T02:21:13.318Z,1013.23
2023-04-20T02:22:13.332Z,1012.90
2023-04-20T02:23:13.235Z,1012.76
2023-04-20T02:24:13.210Z,1013.04
2023-04-20T02:25:13.149Z,1013.06
2023-04-20T02:26:13.099Z,1012.72
2023-04-20T02:27:13.065Z,1012.70
2023-04-20T02:28:21.584Z,1012.98
2023-04-20T02:29:12.984Z,1012.99
2023-04-20T02:30:12.934Z,1012.69
2023-04-20T02:31:12.966Z,1012.79
2023-04-20T02:32:12.847Z,1012.61
2023-04-20T02:33:12.817Z,1012.61
2023-04-20T02:34:12.751Z,1012.95
2023-04-20T02:35:12.716Z,1012.95
2023-04-20T02:36:12.668Z,1012.69
2023-04-20T02:37:12.627Z,1012.62
2023-04-20T02:38:12.599Z,1012.68
2023-04-20T02:39:12.559Z,1012.60
2023-04-20T02:40:12.508Z,1012.57
2023-04-20T02:41:12.470Z,1012.52
2023-04-20T02:42:12.421Z,1012.52
2023-04-20T02:43:12.384Z,1012.54
2023-04-20T02:44:12.389Z,1012.51
2023-04-20T02:45:12.337Z,1012.47
2023-04-20T02:46:12.313Z,1012.51
2023-04-20T02:47:12.207Z,1012.51
2023-04-20T02:48:12.180Z,1012.51
2023-04-20T02:49:12.161Z,1012.53
2023-04-20T02:50:12.084Z,1012.51
2023-04-20T02:51:12.064Z,1012.44
2023-04-20T02:52:12.005Z,1012.45
2023-04-20T02:53:11.966Z,1012.44
2023-04-20T02:54:11.928Z,1012.43
2023-04-20T02:55:11.911Z,1012.40
2023-04-20T02:56:11.840Z,1012.42
2023-04-20T02:57:11.798Z,1012.77
2023-04-20T02:58:11.764Z,1012.79
2023-04-20T02:59:11.734Z,1012.44
2023-04-20T03:00:11.661Z,1012.40
2023-04-20T03:01:11.652Z,1012.36
2023-04-20T03:02:11.717Z,1012.32
2023-04-20T03:03:11.694Z,1012.32
2023-04-20T03:04:11.610Z,1012.30
2023-04-20T03:05:11.478Z,1012.32
2023-04-20T03:06:11.409Z,1012.27
2023-04-20T03:07:11.386Z,1012.31
2023-04-20T03:08:11.322Z,1012.66
2023-04-20T03:09:11.304Z,1012.51
2023-04-20T03:10:11.267Z,1012.25
2023-04-20T03:11:11.214Z,1012.26
2023-04-20T03:12:11.166Z,1012.23
2023-04-20T03:13:11.133Z,1012.27
2023-04-20T03:14:11.080Z,1012.26
2023-04-20T03:15:11.044Z,1012.25
2023-04-20T03:16:11.009Z,1012.25
2023-04-20T03:17:10.947Z,1012.25
2023-04-20T03:18:10.909Z,1012.27
2023-04-20T03:19:10.890Z,1012.31
2023-04-20T03:20:10.829Z,1012.28
2023-04-20T03:21:10.788Z,1012.32
2023-04-20T03:22:10.736Z,1012.29
2023-04-20T03:23:10.700Z,1012.29
2023-04-20T03:24:10.681Z,1012.28
2023-04-20T03:25:10.616Z,1012.30
2023-04-20T03:26:10.587Z,1012.27
2023-04-20T03:27:10.542Z,1012.22
2023-04-20T03:28:10.488Z,1012.22
2023-04-20T03:29:10.455Z,1012.20
2023-04-20T03:30:10.424Z,1012.17
2023-04-20T03:31:10.359Z,1012.16
2023-04-20T03:32:10.378Z,1012.18
2023-04-20T03:33:10.377Z,1012.15
2023-04-20T03:34:10.233Z,1012.13
2023-04-20T03:35:10.195Z,1012.11
2023-04-20T03:36:10.180Z,1012.04
2023-04-20T03:37:10.128Z,1012.02
2023-04-20T03:38:10.063Z,1011.99
2023-04-20T03:39:10.064Z,1012.00
2023-04-20T03:40:09.983Z,1012.01
2023-04-20T03:41:09.954Z,1011.97
2023-04-20T03:42:09.916Z,1012.00
2023-04-20T03:43:09.868Z,1011.95
2023-04-20T03:44:09.811Z,1011.98
2023-04-20T03:45:09.778Z,1011.95
2023-04-20T03:46:09.732Z,1011.94
2023-04-20T03:47:09.694Z,1011.94
2023-04-20T03:48:09.674Z,1011.97
2023-04-20T03:49:09.609Z,1011.89
2023-04-20T03:50:09.565Z,1011.89
2023-04-20T03:51:09.523Z,1011.93
2023-04-20T03:52:09.473Z,1011.90
2023-04-20T03:53:09.436Z,1012.24
2023-04-20T03:54:09.405Z,1011.92
2023-04-20T03:55:09.353Z,1011.91
2023-04-20T03:56:09.313Z,1011.91
2023-04-20T03:57:09.262Z,1012.25
2023-04-20T03:58:09.225Z,1011.92
2023-04-20T03:59:09.177Z,1011.91
2023-04-20T04:00:09.173Z,1011.87
2023-04-20T04:01:09.290Z,1011.85
2023-04-20T04:02:09.117Z,1011.87
2023-04-20T04:03:09.154Z,1011.91
2023-04-20T04:04:09.189Z,1011.75
2023-04-20T04:05:09.017Z,1012.17
2023-04-20T04:06:08.895Z,1012.13
2023-04-20T04:07:08.861Z,1011.79
2023-04-20T04:08:08.808Z,1011.86
2023-04-20T04:09:08.782Z,1011.82
2023-04-20T04:10:08.731Z,1012.22
2023-04-20T04:11:08.692Z,1011.77
2023-04-20T04:12:08.652Z,1011.77
2023-04-20T04:13:08.595Z,1011.76
2023-04-20T04:14:08.565Z,1012.09
2023-04-20T04:15:08.513Z,1012.08
2023-04-20T04:16:08.474Z,1011.71
2023-04-20T04:17:08.484Z,1011.76
2023-04-20T04:18:08.457Z,1012.06
2023-04-20T04:19:08.363Z,1012.08
2023-04-20T04:20:08.301Z,1012.05
2023-04-20T04:21:08.280Z,1011.70
2023-04-20T04:22:08.218Z,1011.73
2023-04-20T04:23:08.218Z,1011.68
2023-04-20T04:24:08.145Z,1011.66
2023-04-20T04:25:08.123Z,1011.68
2023-04-20T04:26:08.058Z,1011.66
2023-04-20T04:27:08.009Z,1011.63
2023-04-20T04:28:07.976Z,1011.60
2023-04-20T04:29:07.940Z,1011.64
2023-04-20T04:30:07.880Z,1011.61
2023-04-20T04:31:07.849Z,1011.98
2023-04-20T04:32:07.800Z,1011.98
2023-04-20T04:33:07.775Z,1011.70
2023-04-20T04:34:07.736Z,1011.75
2023-04-20T04:35:07.682Z,1011.68
2023-04-20T04:36:07.635Z,1011.66
2023-04-20T04:37:07.636Z,1011.80
2023-04-20T04:38:07.546Z,1011.68
2023-04-20T04:39:07.514Z,1011.76
2023-04-20T04:40:07.466Z,1011.63
2023-04-20T04:41:07.419Z,1012.00
2023-04-20T04:42:07.392Z,1011.67
2023-04-20T04:43:07.334Z,1011.68
2023-04-20T04:44:07.313Z,1011.65
2023-04-20T04:45:07.256Z,1011.66
2023-04-20T04:46:07.243Z,1011.64
2023-04-20T04:47:07.169Z,1011.66
2023-04-20T04:48:08.890Z,1011.68
2023-04-20T04:49:07.103Z,1011.64
2023-04-20T04:50:07.059Z,1011.64
2023-04-20T04:51:07.014Z,1011.63
2023-04-20T04:52:06.960Z,1011.62
2023-04-20T04:53:06.930Z,1011.59
2023-04-20T04:54:06.873Z,1011.95
2023-04-20T04:55:06.833Z,1012.01
2023-04-20T04:56:06.862Z,1011.62
2023-04-20T04:57:06.775Z,1011.59
2023-04-20T04:58:06.722Z,1011.63
2023-04-20T04:59:06.667Z,1011.60
2023-04-20T05:00:06.628Z,1011.66
2023-04-20T05:01:06.608Z,1011.67
2023-04-20T05:02:06.690Z,1012.01
2023-04-20T05:03:06.645Z,1011.68
2023-04-20T05:04:06.711Z,1011.69
2023-04-20T05:05:08.956Z,1011.71
2023-04-20T05:06:06.381Z,1011.68
2023-04-20T05:07:06.341Z,1011.72
2023-04-20T05:08:06.330Z,1011.66
2023-04-20T05:09:06.260Z,1011.65
2023-04-20T05:10:06.222Z,1011.62
2023-04-20T05:11:06.210Z,1011.64
2023-04-20T05:12:06.136Z,1011.66
2023-04-20T05:13:06.099Z,1011.70
2023-04-20T05:14:06.053Z,1011.66
2023-04-20T05:15:06.027Z,1011.64
2023-04-20T05:16:05.990Z,1011.62
2023-04-20T05:17:05.947Z,1011.64
2023-04-20T05:18:05.927Z,1011.64
2023-04-20T05:19:05.844Z,1011.63
2023-04-20T05:20:05.815Z,1011.66
2023-04-20T05:21:05.752Z,1011.70
2023-04-20T05:22:05.734Z,1011.68
2023-04-20T05:23:05.680Z,1011.70
2023-04-20T05:24:05.628Z,1012.07
2023-04-20T05:25:05.593Z,1012.08
2023-04-20T05:26:05.569Z,1012.04
2023-04-20T05:27:05.512Z,1011.72
2023-04-20T05:28:05.468Z,1011.73
2023-04-20T05:29:05.424Z,1012.04
2023-04-20T05:30:18.953Z,1012.08
2023-04-20T05:31:05.345Z,1012.02
2023-04-20T05:32:05.366Z,1012.04
2023-04-20T05:33:05.282Z,1012.08
2023-04-20T05:34:05.227Z,1012.15
2023-04-20T05:35:05.176Z,1012.12
2023-04-20T05:36:05.151Z,1012.04
2023-04-20T05:37:05.109Z,1011.71
2023-04-20T05:38:05.068Z,1012.02
2023-04-20T05:39:05.014Z,1012.07
2023-04-20T05:40:04.984Z,1012.07
2023-04-20T05:41:04.930Z,1012.07
2023-04-20T05:42:04.880Z,1011.70
2023-04-20T05:43:04.868Z,1012.05
2023-04-20T05:44:04.837Z,1011.67
2023-04-20T05:45:04.781Z,1011.84
2023-04-20T05:46:04.742Z,1012.01
2023-04-20T05:47:04.681Z,1011.65
2023-04-20T05:48:04.660Z,1012.04
2023-04-20T05:49:04.625Z,1012.03
2023-04-20T05:50:04.602Z,1012.07
2023-04-20T05:51:04.528Z,1011.82
2023-04-20T05:52:04.479Z,1012.08
2023-04-20T05:53:04.444Z,1011.79
2023-04-20T05:54:04.399Z,1011.77
2023-04-20T05:55:04.360Z,1012.06
2023-04-20T05:56:04.335Z,1012.12
2023-04-20T05:57:04.289Z,1011.75
2023-04-20T05:58:04.227Z,1012.06
2023-04-20T05:59:04.189Z,1012.12
2023-04-20T06:00:04.148Z,1011.74
2023-04-20T06:01:04.114Z,1012.10
2023-04-20T06:02:04.133Z,1012.09
2023-04-20T06:03:04.320Z,1011.92
2023-04-20T06:04:04.274Z,1012.05
2023-04-20T06:05:04.008Z,1011.72
2023-04-20T06:06:03.898Z,1012.04
2023-04-20T06:07:03.869Z,1012.04
2023-04-20T06:08:03.831Z,1011.72
2023-04-20T06:09:03.787Z,1012.08
2023-04-20T06:10:03.752Z,1012.04
2023-04-20T06:11:03.696Z,1011.70
2023-04-20T06:12:03.675Z,1011.97
2023-04-20T06:13:03.606Z,1011.84
2023-04-20T06:14:03.584Z,1012.08
2023-04-20T06:15:03.557Z,1012.05
2023-04-20T06:16:03.541Z,1012.03
2023-04-20T06:17:03.461Z,1012.02
2023-04-20T06:18:03.491Z,1011.83
2023-04-20T06:19:03.355Z,1011.69
2023-04-20T06:20:03.343Z,1011.68
2023-04-20T06:21:03.298Z,1011.70
2023-04-20T06:22:03.244Z,1011.67
2023-04-20T06:23:03.197Z,1011.67
2023-04-20T06:24:03.184Z,1011.99
2023-04-20T06:25:03.116Z,1011.71
2023-04-20T06:26:03.079Z,1012.02
2023-04-20T06:27:03.065Z,1011.68
2023-04-20T06:28:03.006Z,1012.04
2023-04-20T06:29:02.950Z,1012.04
2023-04-20T06:30:02.924Z,1012.02
2023-04-20T06:31:02.887Z,1012.11
2023-04-20T06:32:02.820Z,1011.73
2023-04-20T06:33:02.835Z,1011.69
2023-04-20T06:34:02.740Z,1011.73
2023-04-20T06:35:02.701Z,1011.65
2023-04-20T06:36:02.652Z,1011.67
2023-04-20T06:37:02.604Z,1011.75
2023-04-20T06:38:02.631Z,1011.66
2023-04-20T06:39:02.534Z,1011.73
2023-04-20T06:40:02.492Z,1011.75
2023-04-20T06:41:02.442Z,1011.86
2023-04-20T06:42:02.413Z,1011.82
2023-04-20T06:43:02.380Z,1011.93
2023-04-20T06:44:02.325Z,1012.32
2023-04-20T06:45:02.287Z,1012.13
2023-04-20T06:46:02.242Z,1011.90
2023-04-20T06:47:02.228Z,1012.35
2023-04-20T06:48:02.262Z,1012.23
2023-04-20T06:49:02.109Z,1011.85
2023-04-20T06:50:02.080Z,1011.86
2023-04-20T06:51:03.685Z,1012.25
2023-04-20T06:52:02.022Z,1012.29
2023-04-20T06:53:01.954Z,1012.28
2023-04-20T06:54:01.922Z,1012.30
2023-04-20T06:55:01.866Z,1012.19
2023-04-20T06:56:01.841Z,1011.99
2023-04-20T06:57:01.799Z,1012.09
2023-04-20T06:58:01.745Z,1012.39
2023-04-20T06:59:01.713Z,1013.31
2023-04-20T07:00:01.719Z,1012.60
2023-04-20T07:01:01.621Z,1012.37
2023-04-20T07:02:01.679Z,1012.59
2023-04-20T07:03:01.696Z,1012.21
2023-04-20T07:04:01.646Z,1012.08
2023-04-20T07:05:01.511Z,1012.44
2023-04-20T07:06:01.434Z,1012.09
2023-04-20T07:07:01.409Z,1012.15
2023-04-20T07:08:01.349Z,1012.09
2023-04-20T07:09:01.315Z,1012.02
2023-04-20T07:10:01.462Z,1012.07
2023-04-20T07:11:01.223Z,1012.02
2023-04-20T07:12:01.184Z,1012.07
2023-04-20T07:13:01.148Z,1012.04
2023-04-20T07:14:01.112Z,1012.00
2023-04-20T07:15:01.068Z,1011.96
2023-04-20T07:16:01.119Z,1012.02
2023-04-20T07:17:00.979Z,1011.89
2023-04-20T07:18:01.004Z,1011.96
2023-04-20T07:19:00.904Z,1011.94
2023-04-20T07:20:00.876Z,1011.98
2023-04-20T07:21:00.827Z,1011.92
2023-04-20T07:22:00.800Z,1011.96
2023-04-20T07:23:00.765Z,1011.92
2023-04-20T07:24:00.701Z,1011.90
2023-04-20T07:25:01.593Z,1011.92
2023-04-20T07:26:00.618Z,1011.86
2023-04-20T07:27:00.576Z,1012.17
2023-04-20T07:28:00.535Z,1011.89
2023-04-20T07:29:03.790Z,1011.83
2023-04-20T07:30:00.459Z,1011.89
2023-04-20T07:31:00.424Z,1011.84
2023-04-20T07:32:00.445Z,1011.82
2023-04-20T07:33:00.360Z,1011.82
2023-04-20T07:34:00.304Z,1011.82
2023-04-20T07:35:00.287Z,1011.84
2023-04-20T07:36:00.239Z,1011.84
2023-04-20T07:37:00.185Z,1011.80
2023-04-20T07:38:00.154Z,1011.85
2023-04-20T07:39:00.171Z,1011.79
2023-04-20T07:40:00.105Z,1011.89
2023-04-20T07:41:00.038Z,1011.92
2023-04-20T07:42:00.004Z,1011.88
2023-04-20T07:42:59.941Z,1011.84
2023-04-20T07:43:59.890Z,1011.90
2023-04-20T07:44:59.841Z,1011.88
2023-04-20T07:45:59.840Z,1011.89
2023-04-20T07:47:00.357Z,1011.88
2023-04-20T07:47:59.792Z,1011.93
2023-04-20T07:48:59.686Z,1011.89
2023-04-20T07:49:59.678Z,1011.89
2023-04-20T07:50:59.619Z,1011.90
2023-04-20T07:52:09.220Z,1011.92
2023-04-20T07:52:59.558Z,1011.88
2023-04-20T07:53:59.510Z,1011.88
2023-04-20T07:55:01.230Z,1011.87
2023-04-20T07:56:35.175Z,1011.88
2023-04-20T07:56:59.381Z,1011.97
2023-04-20T07:57:59.334Z,1011.87
2023-04-20T07:58:59.277Z,1011.92
2023-04-20T07:59:59.239Z,1011.81
2023-04-20T08:00:59.231Z,1011.84
2023-04-20T08:01:59.256Z,1011.83
2023-04-20T08:02:59.230Z,1011.84
2023-04-20T08:03:59.278Z,1011.84
2023-04-20T08:04:59.249Z,1011.86
2023-04-20T08:05:59.162Z,1011.81
2023-04-20T08:06:58.948Z,1011.80
2023-04-20T08:07:58.906Z,1011.85
2023-04-20T08:08:58.867Z,1011.85
2023-04-20T08:09:58.828Z,1011.81
2023-04-20T08:10:58.781Z,1011.82
2023-04-20T08:11:58.751Z,1011.81
2023-04-20T08:12:58.986Z,1011.82
2023-04-20T08:13:58.696Z,1011.76
2023-04-20T08:14:58.619Z,1011.76
2023-04-20T08:15:58.629Z,1011.74
2023-04-20T08:16:58.539Z,1011.82
2023-04-20T08:17:58.518Z,1011.76
2023-04-20T08:18:58.455Z,1011.76
2023-04-20T08:19:58.410Z,1012.09
2023-04-20T08:20:58.366Z,1012.11
2023-04-20T08:21:58.756Z,1012.06
2023-04-20T08:22:58.311Z,1012.12
2023-04-20T08:23:58.242Z,1012.00
2023-04-20T08:24:58.212Z,1012.02
2023-04-20T08:25:58.161Z,1011.70
2023-04-20T08:26:58.133Z,1011.73
2023-04-20T08:29:30.209Z,1011.69
2023-04-20T08:30:30.080Z,1011.71
2023-04-20T08:31:30.072Z,1011.68
2023-04-20T08:32:30.012Z,1012.00
2023-04-20T08:33:29.948Z,1011.98
2023-04-20T08:34:29.911Z,1011.65
2023-04-20T08:35:29.879Z,1011.98
2023-04-20T08:36:29.824Z,1011.62
2023-04-20T08:37:32.043Z,1011.99
2023-04-20T08:38:33.939Z,1011.61
2023-04-20T08:39:29.702Z,1011.94
2023-04-20T08:40:29.669Z,1011.60
2023-04-20T08:41:29.620Z,1011.93
2023-04-20T08:42:29.583Z,1011.66
2023-04-20T08:43:29.550Z,1011.90
2023-04-20T08:44:29.496Z,1011.86
2023-04-20T08:45:29.608Z,1011.67
2023-04-20T08:46:29.452Z,1011.94
2023-04-20T08:47:29.394Z,1011.92
2023-04-20T08:48:29.682Z,1011.91
2023-04-20T08:49:29.332Z,1011.97
2023-04-20T08:50:29.255Z,1011.88
2023-04-20T08:51:29.213Z,1011.94
2023-04-20T08:52:29.167Z,1011.58
2023-04-20T08:53:29.121Z,1011.60
2023-04-20T08:54:29.101Z,1011.59
2023-04-20T08:55:29.041Z,1011.58
2023-04-20T08:56:28.998Z,1011.62
2023-04-20T08:57:28.953Z,1011.95
2023-04-20T08:58:28.920Z,1011.94
2023-04-20T08:59:28.873Z,1011.60
2023-04-20T09:00:28.850Z,1011.89
2023-04-20T09:01:35.340Z,1011.87
2023-04-20T09:02:28.888Z,1011.94
2023-04-20T09:03:28.858Z,1011.94
2023-04-20T09:04:28.781Z,1012.01
2023-04-20T09:05:28.827Z,1012.08
2023-04-20T09:06:28.607Z,1012.24
2023-04-20T09:07:28.549Z,1011.96
2023-04-20T09:08:28.523Z,1011.83
2023-04-20T09:09:28.465Z,1012.26
2023-04-20T09:10:28.439Z,1011.90
2023-04-20T09:11:28.384Z,1011.84
2023-04-20T09:12:28.346Z,1011.80
2023-04-20T09:13:29.198Z,1011.79
2023-04-20T09:14:28.254Z,1011.77
2023-04-20T09:15:28.228Z,1011.73
2023-04-20T09:16:28.233Z,1011.73
2023-04-20T09:17:28.170Z,1011.72
2023-04-20T09:18:28.081Z,1011.69
2023-04-20T09:19:28.049Z,1011.78
2023-04-20T09:20:28.003Z,1011.92
2023-04-20T09:21:27.980Z,1011.80
2023-04-20T09:22:27.940Z,1011.77
2023-04-20T09:23:27.907Z,1011.83
2023-04-20T09:24:27.840Z,1011.92
2023-04-20T09:25:28.999Z,1011.98
2023-04-20T09:26:27.755Z,1011.95
2023-04-20T09:27:27.722Z,1012.04
2023-04-20T09:28:27.674Z,1012.13
2023-04-20T09:29:27.660Z,1012.56
2023-04-20T09:30:27.583Z,1012.56
2023-04-20T09:31:27.604Z,1012.55
2023-04-20T09:32:27.545Z,1012.48
2023-04-20T09:33:27.472Z,1012.46
2023-04-20T09:34:27.426Z,1012.37
2023-04-20T09:35:27.397Z,1012.06
2023-04-20T09:36:27.349Z,1012.11
2023-04-20T09:37:27.318Z,1012.41
2023-04-20T09:38:27.288Z,1012.05
2023-04-20T09:39:27.248Z,1012.06
2023-04-20T09:40:27.210Z,1012.03
2023-04-20T09:41:27.184Z,1012.18
2023-04-20T09:42:27.197Z,1012.19
2023-04-20T09:43:27.132Z,1012.22
2023-04-20T09:44:27.028Z,1012.44
2023-04-20T09:45:27.113Z,1012.24
2023-04-20T09:46:26.975Z,1012.18
2023-04-20T09:47:26.953Z,1012.58
2023-04-20T09:48:26.907Z,1012.61
2023-04-20T09:49:26.910Z,1012.15
2023-04-20T09:50:34.982Z,1012.10
2023-04-20T09:51:26.781Z,1011.97
2023-04-20T09:52:26.758Z,1012.01
2023-04-20T09:53:26.697Z,1012.38
2023-04-20T09:54:26.645Z,1011.98
2023-04-20T09:55:26.625Z,1011.89
2023-04-20T09:56:26.589Z,1011.94
2023-04-20T09:57:26.565Z,1011.84
2023-04-20T09:58:26.537Z,1011.78
2023-04-20T09:59:26.462Z,1011.76
2023-04-20T10:00:26.424Z,1011.86
2023-04-20T10:01:26.394Z,1011.76
2023-04-20T10:02:26.563Z,1011.99
2023-04-20T10:03:26.442Z,1011.83
2023-04-20T10:04:26.371Z,1011.73
2023-04-20T10:05:26.257Z,1011.72
2023-04-20T10:06:26.198Z,1011.73
2023-04-20T10:07:26.160Z,1011.75
2023-04-20T10:08:26.118Z,1011.71
2023-04-20T10:09:26.128Z,1011.74
2023-04-20T10:10:26.057Z,1011.78
2023-04-20T10:11:27.914Z,1011.70
2023-04-20T10:12:25.957Z,1011.74
2023-04-20T10:13:25.929Z,1011.72
2023-04-20T10:14:25.938Z,1011.79
2023-04-20T10:15:25.859Z,1011.74
2023-04-20T10:16:25.807Z,1011.71
2023-04-20T10:17:25.915Z,1011.73
2023-04-20T10:18:25.928Z,1011.70
2023-04-20T10:19:25.702Z,1012.15
2023-04-20T10:20:25.671Z,1011.92
2023-04-20T10:21:25.622Z,1011.95
2023-04-20T10:22:25.568Z,1012.07
2023-04-20T10:23:25.557Z,1011.98
2023-04-20T10:24:25.500Z,1011.70
2023-04-20T10:25:25.457Z,1011.93
2023-04-20T10:26:25.434Z,1011.58
2023-04-20T10:27:25.393Z,1011.78
2023-04-20T10:28:25.350Z,1012.12
2023-04-20T10:29:25.335Z,1011.69
2023-04-20T10:30:25.277Z,1011.82
2023-04-20T10:31:25.293Z,1011.76
2023-04-20T10:32:25.340Z,1011.79
2023-04-20T10:33:25.157Z,1011.65
2023-04-20T10:34:25.125Z,1011.46
2023-04-20T10:35:25.083Z,1011.60
2023-04-20T10:36:25.046Z,1011.58
2023-04-20T10:37:25.021Z,1011.62
2023-04-20T10:38:24.960Z,1011.54
2023-04-20T10:39:25.074Z,1011.58
2023-04-20T10:40:24.878Z,1011.54
2023-04-20T10:41:24.856Z,1011.54
2023-04-20T10:42:24.800Z,1011.53
2023-04-20T10:43:24.883Z,1011.87
2023-04-20T10:44:24.753Z,1011.86
2023-04-20T10:45:24.722Z,1011.48
2023-04-20T10:46:24.689Z,1011.55
2023-04-20T10:47:24.658Z,1011.50
2023-04-20T10:48:24.599Z,1011.43
2023-04-20T10:49:24.912Z,1011.44
2023-04-20T10:50:24.510Z,1011.36
2023-04-20T10:51:24.458Z,1011.49
2023-04-20T10:52:24.432Z,1011.46
2023-04-20T10:53:24.503Z,1011.51
2023-04-20T10:54:24.366Z,1011.62
2023-04-20T10:55:24.375Z,1011.72
2023-04-20T10:56:24.272Z,1011.61
2023-04-20T10:57:24.220Z,1011.73
2023-04-20T10:58:24.206Z,1011.73
2023-04-20T10:59:24.177Z,1011.77
2023-04-20T11:00:24.121Z,1011.77
2023-04-20T11:01:24.083Z,1011.78
2023-04-20T11:02:24.192Z,1011.82
2023-04-20T11:03:24.045Z,1011.97
2023-04-20T11:04:23.949Z,1011.48
2023-04-20T11:05:23.967Z,1011.52
2023-04-20T11:06:23.898Z,1011.49
2023-04-20T11:07:23.855Z,1011.44
2023-04-20T11:08:23.816Z,1011.37
2023-04-20T11:09:23.844Z,1011.61
2023-04-20T11:10:23.735Z,1011.57
2023-04-20T11:11:24.243Z,1011.58
2023-04-20T11:12:23.667Z,1011.30
2023-04-20T11:13:23.645Z,1011.30
2023-04-20T11:14:23.582Z,1011.30
2023-04-20T11:15:23.565Z,1011.48
2023-04-20T11:16:28.115Z,1011.64
2023-04-20T11:17:23.679Z,1011.49
2023-04-20T11:18:23.511Z,1011.56
2023-04-20T11:19:23.415Z,1011.55
2023-04-20T11:20:23.369Z,1011.49
2023-04-20T11:21:23.349Z,1011.33
2023-04-20T11:22:23.332Z,1011.25
2023-04-20T11:23:23.279Z,1011.16
2023-04-20T11:24:23.214Z,1011.15
2023-04-20T11:25:23.285Z,1011.24
2023-04-20T11:26:23.144Z,1011.30
2023-04-20T11:27:23.132Z,1011.10
2023-04-20T11:28:23.101Z,1011.07
2023-04-20T11:29:23.062Z,1011.14
2023-04-20T11:30:22.985Z,1011.49
2023-04-20T11:31:23.052Z,1011.47
2023-04-20T11:32:23.127Z,1011.06
2023-04-20T11:33:22.913Z,1011.08
2023-04-20T11:34:22.859Z,1011.08
2023-04-20T11:35:22.810Z,1011.42
2023-04-20T11:36:22.788Z,1011.38
2023-04-20T11:37:22.751Z,1011.47
2023-04-20T11:38:22.691Z,1011.44
2023-04-20T11:39:22.660Z,1011.08
2023-04-20T11:40:22.604Z,1011.13
2023-04-20T11:41:22.586Z,1011.22
2023-04-20T11:42:22.531Z,1011.05
2023-04-20T11:43:22.516Z,1010.97
2023-04-20T11:44:22.453Z,1011.37
2023-04-20T11:45:22.418Z,1011.00
2023-04-20T11:46:22.442Z,1011.07
2023-04-20T11:47:22.385Z,1011.17
2023-04-20T11:48:22.307Z,1011.16
2023-04-20T11:49:22.275Z,1011.17
2023-04-20T11:50:22.229Z,1011.14
2023-04-20T11:51:22.184Z,1011.43
2023-04-20T11:52:22.144Z,1011.01
2023-04-20T11:53:22.108Z,1010.98
2023-04-20T11:54:22.101Z,1011.04
2023-04-20T11:55:22.042Z,1011.34
2023-04-20T11:56:21.998Z,1011.66
2023-04-20T11:57:21.958Z,1011.10
2023-04-20T11:58:21.907Z,1011.20
2023-04-20T11:59:21.966Z,1011.20
2023-04-20T12:00:21.832Z,1011.22
2023-04-20T12:01:21.821Z,1011.07
2023-04-20T12:02:21.825Z,1010.98
2023-04-20T12:03:21.780Z,1011.04
2023-04-20T12:04:21.911Z,1011.02
2023-04-20T12:05:21.697Z,1011.07
2023-04-20T12:06:21.600Z,1010.98